Time;durP1;ratioP1;P1;durP2;ratioP2;P2;SDS_P1;SDS_P2;PMS_P1;PMS_P2;Temp;Humidity;BMP_temperature;BMP_pressure;BME280_temperature;BME280_humidity;BME280_pressure;Samples;Min_cycle;Max_cycle;Signal;HPM_P1;HPM_P2
2022/02/22 00:01:13;;;;;;;3.85;1.70;;;5.00;99.90;;;;;;5097006;28;20222;-93
2022/02/22 00:03:41;;;;;;;5.28;1.63;;;5.00;99.90;;;;;;5097284;28;20215;-92
2022/02/22 00:06:08;;;;;;;3.15;1.52;;;5.00;99.90;;;;;;5097274;28;20685;-93
2022/02/22 00:08:36;;;;;;;6.25;2.15;;;5.10;99.90;;;;;;5097823;28;20200;-93
2022/02/22 00:11:03;;;;;;;3.28;1.77;;;5.10;99.90;;;;;;5100508;28;20226;-93
2022/02/22 00:13:30;;;;;;;3.40;1.50;;;5.00;99.90;;;;;;5096198;28;20211;-93
2022/02/22 00:15:57;;;;;;;4.90;2.15;;;5.10;99.90;;;;;;5096271;28;20273;-92
2022/02/22 00:18:24;;;;;;;3.47;1.95;;;5.10;99.90;;;;;;5093329;28;20241;-92
2022/02/22 00:20:51;;;;;;;2.95;1.70;;;5.10;99.90;;;;;;5094160;28;20195;-91
2022/02/22 00:23:17;;;;;;;2.85;1.20;;;5.10;99.90;;;;;;5093662;28;20208;-92
2022/02/22 00:25:46;;;;;;;6.95;1.95;;;5.10;99.90;;;;;;5093499;28;20223;-92
2022/02/22 00:28:12;;;;;;;4.50;1.77;;;5.10;99.90;;;;;;5094249;28;20204;-91
2022/02/22 00:30:39;;;;;;;5.38;1.40;;;5.10;99.90;;;;;;5093203;28;20214;-92
2022/02/22 00:33:06;;;;;;;2.47;1.90;;;5.10;99.90;;;;;;5093387;28;20234;-92
2022/02/22 00:35:33;;;;;;;2.63;1.60;;;5.10;99.90;;;;;;5094861;28;20226;-92
2022/02/22 00:37:59;;;;;;;4.05;1.63;;;5.00;99.90;;;;;;5102806;28;20226;-92
2022/02/22 00:40:26;;;;;;;6.88;2.15;;;5.00;99.90;;;;;;5107576;28;20672;-92
2022/02/22 00:42:54;;;;;;;2.38;1.58;;;5.00;99.90;;;;;;5105788;28;20575;-91
2022/02/22 00:45:22;;;;;;;3.13;1.75;;;5.00;99.90;;;;;;5103237;28;20253;-91
2022/02/22 00:47:48;;;;;;;3.13;1.42;;;5.00;99.90;;;;;;5100272;28;20766;-92
2022/02/22 00:50:15;;;;;;;4.10;1.63;;;5.00;99.90;;;;;;5096178;28;20265;-93
2022/02/22 00:52:42;;;;;;;2.85;1.88;;;5.00;99.90;;;;;;5095526;28;20200;-93
2022/02/22 00:55:10;;;;;;;5.78;1.98;;;5.00;99.90;;;;;;5094835;28;20234;-92
2022/02/22 00:57:41;;;;;;;5.75;2.58;;;5.00;99.90;;;;;;5095294;28;20215;-92
2022/02/22 01:00:13;;;;;;;4.45;1.65;;;5.10;99.90;;;;;;5095942;28;20196;-92
2022/02/22 01:02:40;;;;;;;3.75;1.55;;;5.10;99.90;;;;;;5095143;28;20204;-93
2022/02/22 01:05:08;;;;;;;4.03;1.80;;;5.10;99.90;;;;;;5094880;28;20226;-93
2022/02/22 01:07:35;;;;;;;4.03;1.58;;;5.00;99.90;;;;;;5094376;28;20215;-92
2022/02/22 01:10:02;;;;;;;4.85;1.60;;;5.00;99.90;;;;;;5095033;28;20230;-92
2022/02/22 01:12:29;;;;;;;3.00;1.50;;;5.00;99.90;;;;;;5094390;28;20572;-90
2022/02/22 01:14:56;;;;;;;3.67;1.73;;;4.90;99.90;;;;;;5096680;28;20231;-92
2022/02/22 01:17:24;;;;;;;5.93;2.10;;;4.90;99.90;;;;;;5097252;28;20687;-92
2022/02/22 01:19:51;;;;;;;5.65;2.05;;;4.90;99.90;;;;;;5098087;28;20211;-92
2022/02/22 01:22:17;;;;;;;3.00;1.50;;;4.90;99.90;;;;;;5097707;28;20206;-93
2022/02/22 01:24:44;;;;;;;5.95;2.22;;;4.90;99.90;;;;;;5096783;28;20219;-93
2022/02/22 01:27:11;;;;;;;8.68;1.63;;;4.90;99.90;;;;;;5097451;28;20597;-92
2022/02/22 01:29:38;;;;;;;4.38;1.58;;;4.90;99.90;;;;;;5096899;28;20204;-92
2022/02/22 01:32:06;;;;;;;5.75;1.98;;;4.80;99.90;;;;;;5098008;28;20223;-94
2022/02/22 01:34:34;;;;;;;4.53;1.38;;;4.80;99.90;;;;;;5097387;28;20228;-92
2022/02/22 01:37:01;;;;;;;7.05;1.80;;;4.80;99.90;;;;;;5098643;28;20192;-92
2022/02/22 01:39:27;;;;;;;5.28;1.80;;;4.80;99.90;;;;;;5099921;28;20204;-93
2022/02/22 01:41:54;;;;;;;2.40;1.50;;;4.80;99.90;;;;;;5104757;28;20183;-93
2022/02/22 01:44:23;;;;;;;3.83;1.35;;;4.70;99.90;;;;;;5117857;28;20220;-92
2022/02/22 01:46:58;;;;;;;3.78;1.70;;;4.70;99.90;;;;;;5100772;28;20707;-92
2022/02/22 01:49:25;;;;;;;5.25;1.60;;;4.60;99.90;;;;;;5106723;28;20203;-93
2022/02/22 01:51:54;;;;;;;4.90;1.45;;;4.50;99.90;;;;;;5097839;28;20200;-92
2022/02/22 01:54:23;;;;;;;4.05;1.65;;;4.50;99.90;;;;;;5097500;28;20227;-94
2022/02/22 01:56:50;;;;;;;5.63;1.88;;;4.40;99.90;;;;;;5098240;28;20204;-93
2022/02/22 01:59:17;;;;;;;3.10;1.80;;;4.40;99.90;;;;;;5098335;28;20211;-92
2022/02/22 02:01:44;;;;;;;8.93;2.25;;;4.40;99.90;;;;;;5098229;28;20206;-92
2022/02/22 02:04:11;;;;;;;2.65;1.30;;;4.30;99.90;;;;;;5097737;28;20227;-93
2022/02/22 02:06:39;;;;;;;3.95;1.77;;;4.30;99.90;;;;;;5100393;28;20216;-92
2022/02/22 02:09:08;;;;;;;3.28;1.70;;;4.30;99.90;;;;;;5097867;28;20200;-93
2022/02/22 02:11:45;;;;;;;2.53;1.30;;;4.30;99.90;;;;;;5098112;28;20204;-92
2022/02/22 02:14:13;;;;;;;3.83;1.63;;;4.20;99.90;;;;;;5097593;28;20234;-93
2022/02/22 02:16:40;;;;;;;3.55;1.92;;;4.20;99.90;;;;;;5097748;28;20195;-92
2022/02/22 02:19:09;;;;;;;2.63;2.00;;;4.10;99.90;;;;;;5098851;28;20207;-93
2022/02/22 02:21:37;;;;;;;3.95;1.90;;;4.20;99.90;;;;;;5098155;28;20203;-92
2022/02/22 02:24:15;;;;;;;3.25;1.60;;;4.10;99.90;;;;;;5097848;28;20235;-92
2022/02/22 02:26:43;;;;;;;3.90;1.67;;;4.10;99.90;;;;;;5098069;28;20220;-93
2022/02/22 02:29:11;;;;;;;5.03;2.05;;;4.10;99.90;;;;;;5099072;28;20204;-92
2022/02/22 02:31:38;;;;;;;2.47;1.75;;;4.00;99.90;;;;;;5098555;28;20207;-93
2022/02/22 02:34:06;;;;;;;4.72;1.83;;;4.00;99.90;;;;;;5105761;28;20228;-93
2022/02/22 02:36:34;;;;;;;2.47;1.73;;;4.00;99.90;;;;;;5111924;28;20191;-93
2022/02/22 02:39:01;;;;;;;5.18;2.05;;;4.00;99.90;;;;;;5109834;28;20208;-93
2022/02/22 02:41:29;;;;;;;4.32;1.92;;;3.90;99.90;;;;;;5102200;28;20190;-94
2022/02/22 02:44:02;;;;;;;6.63;2.30;;;3.90;99.90;;;;;;5098904;28;20280;-94
2022/02/22 02:46:29;;;;;;;4.10;2.20;;;3.90;99.90;;;;;;5096520;28;20219;-94
2022/02/22 02:48:56;;;;;;;2.97;1.90;;;3.90;99.90;;;;;;5096471;28;20207;-93
2022/02/22 02:51:23;;;;;;;5.35;1.98;;;3.90;99.90;;;;;;5096492;28;20659;-94
2022/02/22 02:53:50;;;;;;;3.85;1.70;;;3.90;99.90;;;;;;5096501;28;20223;-93
2022/02/22 02:56:22;;;;;;;5.18;2.05;;;3.90;99.90;;;;;;5096574;28;20203;-93
2022/02/22 02:58:52;;;;;;;4.10;1.95;;;3.80;99.90;;;;;;5097512;28;20212;-92
2022/02/22 03:01:18;;;;;;;3.25;1.92;;;3.80;99.90;;;;;;5097345;28;20204;-93
2022/02/22 03:03:45;;;;;;;4.97;2.55;;;3.80;99.90;;;;;;5095605;28;20223;-94
2022/02/22 03:06:12;;;;;;;6.70;2.20;;;3.70;99.90;;;;;;5095968;28;20211;-92
2022/02/22 03:08:39;;;;;;;3.60;1.83;;;3.80;99.90;;;;;;5096390;28;20204;-93
2022/02/22 03:11:06;;;;;;;4.68;2.00;;;3.80;99.90;;;;;;5096437;28;20218;-94
2022/02/22 03:13:33;;;;;;;1.80;1.42;;;3.80;99.90;;;;;;5096813;28;20229;-93
2022/02/22 03:16:01;;;;;;;6.00;1.77;;;3.80;99.90;;;;;;5096539;28;20199;-93
2022/02/22 03:18:28;;;;;;;10.18;2.05;;;3.80;99.90;;;;;;5096523;28;20223;-92
2022/02/22 03:20:55;;;;;;;3.40;2.03;;;3.80;99.90;;;;;;5096712;28;20204;-92
2022/02/22 03:23:22;;;;;;;4.88;1.98;;;3.80;99.90;;;;;;5096872;28;20282;-93
2022/02/22 03:25:50;;;;;;;4.38;2.20;;;3.90;99.90;;;;;;5097032;28;20195;-94
2022/02/22 03:28:17;;;;;;;4.47;1.85;;;3.90;99.90;;;;;;5097062;28;20249;-93
2022/02/22 03:30:44;;;;;;;2.88;2.10;;;3.90;99.90;;;;;;5096928;28;20200;-93
2022/02/22 03:33:13;;;;;;;3.85;1.98;;;3.90;99.90;;;;;;5098514;28;20207;-94
2022/02/22 03:35:40;;;;;;;4.85;1.80;;;3.80;99.90;;;;;;5105705;28;20203;-94
2022/02/22 03:38:07;;;;;;;5.22;2.30;;;3.80;99.90;;;;;;5112438;28;20219;-93
2022/02/22 03:40:35;;;;;;;5.70;2.10;;;3.80;99.90;;;;;;5106703;28;20621;-92
2022/02/22 03:43:01;;;;;;;5.95;1.80;;;3.80;99.90;;;;;;5109384;28;20198;-92
2022/02/22 03:45:28;;;;;;;6.80;2.00;;;3.80;99.90;;;;;;5113410;28;20245;-92
2022/02/22 03:47:56;;;;;;;7.05;1.90;;;3.80;99.90;;;;;;5113375;28;20227;-93
2022/02/22 03:50:24;;;;;;;6.35;2.42;;;3.80;99.90;;;;;;5103686;28;20196;-94
2022/02/22 03:52:52;;;;;;;8.10;2.45;;;3.80;99.90;;;;;;5097187;28;20203;-92
2022/02/22 03:55:19;;;;;;;4.60;1.98;;;3.80;99.90;;;;;;5097209;28;20399;-92
2022/02/22 03:57:46;;;;;;;7.28;2.47;;;3.80;99.90;;;;;;5097273;28;20672;-92
2022/02/22 04:00:16;;;;;;;4.30;1.98;;;3.80;99.90;;;;;;5096725;28;20215;-92
2022/02/22 04:02:43;;;;;;;3.58;2.13;;;3.70;99.90;;;;;;5096557;28;20203;-92
2022/02/22 04:05:10;;;;;;;6.00;2.33;;;3.80;99.90;;;;;;5095730;28;20269;-92
2022/02/22 04:07:39;;;;;;;6.05;2.13;;;3.70;99.90;;;;;;5096060;28;20226;-92
2022/02/22 04:10:08;;;;;;;4.63;2.25;;;3.80;99.90;;;;;;5095684;28;20214;-93
2022/02/22 04:12:36;;;;;;;2.90;1.80;;;3.80;99.90;;;;;;5095615;28;20199;-93
2022/02/22 04:15:03;;;;;;;4.07;1.90;;;3.80;99.90;;;;;;5095755;28;20230;-93
2022/02/22 04:17:30;;;;;;;4.00;1.73;;;3.90;99.90;;;;;;5095804;28;20191;-92
2022/02/22 04:19:58;;;;;;;3.95;1.67;;;3.80;99.90;;;;;;5096066;28;20290;-93
2022/02/22 04:22:25;;;;;;;3.10;1.75;;;3.90;99.90;;;;;;5096371;28;20287;-92
2022/02/22 04:24:53;;;;;;;4.45;2.03;;;3.80;99.90;;;;;;5101122;28;20208;-93
2022/02/22 04:27:20;;;;;;;3.28;1.70;;;3.80;99.90;;;;;;5099402;28;20236;-93
2022/02/22 04:29:47;;;;;;;2.90;1.48;;;3.80;99.90;;;;;;5092784;28;20210;-93
2022/02/22 04:32:14;;;;;;;4.22;1.60;;;3.80;99.90;;;;;;5084323;28;20201;-91
2022/02/22 04:34:41;;;;;;;5.78;1.92;;;3.70;99.90;;;;;;5085857;28;20220;-91
2022/02/22 04:37:12;;;;;;;4.10;1.77;;;3.60;99.90;;;;;;5084875;28;20200;-91
2022/02/22 04:39:40;;;;;;;3.25;2.05;;;3.50;99.90;;;;;;5083383;28;20207;-91
2022/02/22 04:42:09;;;;;;;3.95;3.30;;;3.50;99.90;;;;;;5081751;28;20200;-91
2022/02/22 04:44:35;;;;;;;4.50;2.05;;;3.50;99.90;;;;;;5082428;28;20220;-90
2022/02/22 04:47:03;;;;;;;5.25;2.10;;;3.50;99.90;;;;;;5084760;28;20719;-91
2022/02/22 04:49:29;;;;;;;4.93;2.42;;;3.40;99.90;;;;;;5088711;28;20191;-92
2022/02/22 04:51:56;;;;;;;5.57;3.15;;;3.50;99.90;;;;;;5091140;28;20260;-91
2022/02/22 04:54:23;;;;;;;2.85;2.10;;;3.50;99.90;;;;;;5105504;22;20244;-72
2022/02/22 04:56:49;;;;;;;3.10;2.38;;;3.40;99.90;;;;;;5072836;28;20208;-72
2022/02/22 04:59:17;;;;;;;4.25;2.22;;;3.50;99.90;;;;;;5082619;28;20219;-72
2022/02/22 05:01:44;;;;;;;7.13;3.35;;;3.40;99.90;;;;;;5081749;28;20224;-72
2022/02/22 05:04:11;;;;;;;5.95;2.45;;;3.40;99.90;;;;;;5082248;28;20281;-72
2022/02/22 05:06:37;;;;;;;4.68;1.92;;;3.50;99.90;;;;;;5083331;28;20228;-72
2022/02/22 05:09:05;;;;;;;4.97;3.05;;;3.40;99.90;;;;;;5080906;28;20216;-72
2022/02/22 05:11:31;;;;;;;4.28;2.72;;;3.40;99.90;;;;;;5083264;28;20195;-72
2022/02/22 05:13:58;;;;;;;9.80;3.13;;;3.40;99.90;;;;;;5082450;28;20200;-72
2022/02/22 05:16:26;;;;;;;5.03;2.50;;;3.40;99.90;;;;;;5080548;28;20200;-72
2022/02/22 05:18:53;;;;;;;5.15;2.13;;;3.40;99.90;;;;;;5082245;28;20200;-72
2022/02/22 05:21:20;;;;;;;4.47;2.67;;;3.40;99.90;;;;;;5086596;28;20194;-71
2022/02/22 05:23:46;;;;;;;4.80;2.15;;;3.40;99.90;;;;;;5096265;28;20196;-70
2022/02/22 05:26:13;;;;;;;7.07;2.15;;;3.40;99.90;;;;;;5095305;28;20196;-70
2022/02/22 05:28:44;;;;;;;5.63;2.85;;;3.40;99.90;;;;;;5096113;28;20224;-71
2022/02/22 05:31:12;;;;;;;5.57;2.30;;;3.30;99.90;;;;;;5093789;28;20207;-71
2022/02/22 05:33:40;;;;;;;3.22;2.33;;;3.30;99.90;;;;;;5091829;28;20204;-71
2022/02/22 05:36:07;;;;;;;4.75;1.98;;;3.30;99.90;;;;;;5093029;28;20223;-70
2022/02/22 05:38:34;;;;;;;7.85;2.70;;;3.40;99.90;;;;;;5093238;28;20200;-70
2022/02/22 05:41:00;;;;;;;5.15;2.33;;;3.30;99.90;;;;;;5093354;28;20214;-70
2022/02/22 05:43:27;;;;;;;5.55;2.58;;;3.30;99.90;;;;;;5092455;28;20253;-70
2022/02/22 05:51:58;;;;;;;2.92;1.75;;;3.30;99.90;;;;;;5084199;28;20222;-89
2022/02/22 05:54:25;;;;;;;5.03;2.35;;;3.30;99.90;;;;;;5096564;28;20214;-89
2022/02/22 05:56:51;;;;;;;3.08;1.98;;;3.30;99.90;;;;;;5087171;28;20585;-90
2022/02/22 05:59:18;;;;;;;4.90;2.60;;;3.20;99.90;;;;;;5087175;28;20199;-88
2022/02/22 06:01:45;;;;;;;8.20;2.70;;;3.20;99.90;;;;;;5086587;28;20203;-90
2022/02/22 06:04:13;;;;;;;7.15;2.40;;;3.20;99.90;;;;;;5086173;28;20580;-89
2022/02/22 06:06:41;;;;;;;4.38;2.90;;;3.20;99.90;;;;;;5083496;28;20207;-90
2022/02/22 06:09:09;;;;;;;4.38;2.10;;;3.20;99.90;;;;;;5083202;28;20278;-89
2022/02/22 06:11:36;;;;;;;5.95;2.88;;;3.20;99.90;;;;;;5091156;28;20200;-89
2022/02/22 06:14:34;;;;;;;13.10;3.28;;;3.10;99.90;;;;;;5094448;28;20637;-90
2022/02/22 06:23:43;;;;;;;2.85;2.25;;;3.10;99.90;;;;;;5047350;28;20199;-90
2022/02/22 06:26:45;;;;;;;6.10;2.35;;;3.10;99.90;;;;;;5096026;28;20246;-90
2022/02/22 06:36:52;;;;;;;;;;;;;;;;;;;;;
2022/02/22 06:43:45;;;;;;;2.55;2.33;;;3.10;99.90;;;;;;5010117;28;20203;-90
2022/02/22 06:53:30;;;;;;;4.57;2.50;;;3.20;99.90;;;;;;5095546;28;20254;-89
2022/02/22 06:56:27;;;;;;;4.90;2.17;;;3.10;99.90;;;;;;5095303;28;20246;-90
2022/02/22 06:59:52;;;;;;;4.03;2.28;;;3.20;99.90;;;;;;5105255;28;20199;-91
2022/02/22 07:05:18;;;;;;;5.53;2.35;;;3.20;99.90;;;;;;5112913;22;20284;-71
2022/02/22 07:07:45;;;;;;;6.90;2.83;;;3.20;99.90;;;;;;5091720;28;20608;-70
2022/02/22 07:10:11;;;;;;;4.60;2.13;;;3.30;99.90;;;;;;5091073;28;20211;-71
2022/02/22 07:12:38;;;;;;;5.68;2.78;;;3.30;99.90;;;;;;5091647;28;20207;-71
2022/02/22 07:15:07;;;;;;;7.97;2.50;;;3.40;99.90;;;;;;5091377;28;20246;-70
2022/02/22 07:17:44;;;;;;;4.20;2.20;;;3.50;99.90;;;;;;5092051;28;20674;-71
2022/02/22 07:20:12;;;;;;;8.27;2.92;;;3.50;99.90;;;;;;5091666;28;20202;-70
2022/02/22 07:22:39;;;;;;;6.32;2.63;;;3.60;99.90;;;;;;5088043;28;20223;-70
2022/02/22 07:25:06;;;;;;;4.82;2.63;;;3.80;99.90;;;;;;5106635;28;20214;-71
2022/02/22 07:27:33;;;;;;;2.97;1.92;;;4.00;99.90;;;;;;5111460;28;20797;-71
2022/02/22 07:30:00;;;;;;;4.82;2.70;;;4.20;99.90;;;;;;5110677;28;20206;-71
2022/02/22 07:32:28;;;;;;;6.43;2.40;;;4.30;99.90;;;;;;5110380;28;20218;-72
2022/02/22 07:34:55;;;;;;;4.18;2.25;;;4.40;99.90;;;;;;5110820;28;20219;-71
2022/02/22 07:37:22;;;;;;;3.92;2.30;;;4.60;99.90;;;;;;5110276;28;20203;-72
2022/02/22 07:39:50;;;;;;;3.55;2.30;;;4.70;99.90;;;;;;5110978;28;20203;-71
2022/02/22 07:42:17;;;;;;;3.45;2.65;;;5.00;99.90;;;;;;5110494;28;20259;-71
2022/02/22 07:44:44;;;;;;;6.35;2.22;;;5.10;99.90;;;;;;5110242;28;20756;-71
2022/02/22 07:47:11;;;;;;;4.40;2.35;;;5.60;99.90;;;;;;5110452;28;20199;-70
2022/02/22 07:49:39;;;;;;;7.20;2.45;;;6.00;99.90;;;;;;5113327;28;20219;-71
2022/02/22 07:52:06;;;;;;;7.05;3.67;;;6.50;99.90;;;;;;5111894;28;20210;-70
2022/02/22 07:54:33;;;;;;;9.77;2.80;;;6.80;99.90;;;;;;5110889;28;20222;-70
2022/02/22 07:57:01;;;;;;;6.32;2.20;;;6.80;99.90;;;;;;5111319;28;20309;-71
2022/02/22 07:59:27;;;;;;;3.70;1.73;;;7.10;99.90;;;;;;5110425;28;20206;-70
2022/02/22 08:01:55;;;;;;;8.27;2.90;;;7.60;99.90;;;;;;5110707;28;20662;-72
2022/02/22 08:04:25;;;;;;;7.88;2.47;;;8.20;99.90;;;;;;5112729;28;20222;-69
2022/02/22 08:06:53;;;;;;;5.28;2.10;;;8.80;99.90;;;;;;5110229;28;20210;-71
2022/02/22 08:09:20;;;;;;;4.45;2.20;;;9.60;99.70;;;;;;5110507;28;20235;-72
2022/02/22 08:11:48;;;;;;;6.65;2.42;;;10.60;98.50;;;;;;5111912;28;20286;-74
2022/02/22 08:14:15;;;;;;;4.03;2.03;;;11.10;97.10;;;;;;5109935;28;20238;-73
2022/02/22 08:16:42;;;;;;;3.60;2.45;;;11.30;97.20;;;;;;5111270;28;20697;-73
2022/02/22 08:19:09;;;;;;;4.75;1.90;;;11.90;96.30;;;;;;5110717;28;20738;-73
2022/02/22 08:21:36;;;;;;;7.55;3.00;;;12.10;95.70;;;;;;5110774;28;20316;-73
2022/02/22 08:24:06;;;;;;;7.25;2.00;;;12.20;95.50;;;;;;5109868;28;20302;-73
2022/02/22 08:26:32;;;;;;;7.63;2.75;;;12.50;95.10;;;;;;5110523;28;20627;-72
2022/02/22 08:28:59;;;;;;;5.15;2.45;;;12.10;95.00;;;;;;5110547;28;20226;-73
2022/02/22 08:31:26;;;;;;;3.63;2.03;;;11.30;95.40;;;;;;5110454;28;20545;-72
2022/02/22 08:33:58;;;;;;;4.93;1.88;;;10.40;96.50;;;;;;5110411;28;20676;-73
2022/02/22 08:36:26;;;;;;;4.30;2.13;;;9.50;97.90;;;;;;5110231;28;20199;-73
2022/02/22 08:38:52;;;;;;;5.05;2.65;;;8.80;98.60;;;;;;5111166;28;20199;-73
2022/02/22 08:41:21;;;;;;;8.32;2.75;;;8.20;99.20;;;;;;5110769;28;20274;-73
2022/02/22 08:43:49;;;;;;;8.77;2.30;;;7.70;99.80;;;;;;5109921;28;20199;-70
2022/02/22 08:46:16;;;;;;;6.90;3.25;;;7.50;99.90;;;;;;5110542;28;20230;-70
2022/02/22 08:48:43;;;;;;;5.68;2.65;;;7.40;99.90;;;;;;5110675;28;20227;-72
2022/02/22 08:51:10;;;;;;;3.70;2.20;;;7.20;99.90;;;;;;5110515;28;20203;-72
2022/02/22 08:53:38;;;;;;;6.60;2.70;;;7.10;99.90;;;;;;5110508;28;20568;-72
2022/02/22 08:56:05;;;;;;;7.28;2.10;;;6.80;99.90;;;;;;5110338;28;20225;-73
2022/02/22 08:58:34;;;;;;;7.20;2.55;;;6.80;99.90;;;;;;5110321;28;20210;-73
2022/02/22 09:01:00;;;;;;;3.83;1.90;;;6.70;99.90;;;;;;5110880;28;20658;-73
2022/02/22 09:03:27;;;;;;;4.47;2.53;;;6.60;99.90;;;;;;5102990;28;20196;-71
2022/02/22 09:05:55;;;;;;;3.67;2.30;;;6.50;99.90;;;;;;5090053;28;20227;-72
2022/02/22 09:08:22;;;;;;;5.10;2.33;;;6.50;99.90;;;;;;5090097;28;20228;-72
2022/02/22 09:10:50;;;;;;;5.97;2.30;;;6.50;99.90;;;;;;5090031;28;20232;-72
2022/02/22 09:13:16;;;;;;;5.88;2.30;;;6.50;99.90;;;;;;5088827;28;20210;-73
2022/02/22 09:15:45;;;;;;;5.18;2.30;;;6.60;99.90;;;;;;5089980;28;20298;-72
2022/02/22 09:18:13;;;;;;;9.50;2.75;;;6.60;99.90;;;;;;5089689;28;20204;-71
2022/02/22 09:20:39;;;;;;;7.75;2.25;;;6.60;99.90;;;;;;5089333;28;20579;-72
2022/02/22 09:23:07;;;;;;;4.15;1.88;;;6.60;99.90;;;;;;5088618;28;20200;-72
2022/02/22 09:25:35;;;;;;;6.45;2.38;;;6.60;99.90;;;;;;5089568;28;20220;-72
2022/02/22 09:28:03;;;;;;;8.10;3.15;;;6.70;99.90;;;;;;5089665;28;20226;-72
2022/02/22 09:30:31;;;;;;;5.28;2.20;;;6.80;99.90;;;;;;5089858;28;20220;-72
2022/02/22 09:32:59;;;;;;;3.33;1.77;;;6.80;99.90;;;;;;5090140;28;20200;-72
2022/02/22 09:35:27;;;;;;;6.88;2.30;;;6.90;99.90;;;;;;5092686;28;20812;-72
2022/02/22 09:37:54;;;;;;;2.92;1.52;;;7.00;99.90;;;;;;5093120;28;20295;-71
2022/02/22 09:40:21;;;;;;;8.70;2.03;;;7.00;99.90;;;;;;5093234;28;20206;-73
2022/02/22 09:42:48;;;;;;;8.48;2.30;;;7.00;99.90;;;;;;5093355;28;20207;-72
2022/02/22 09:45:16;;;;;;;3.35;2.10;;;6.90;99.90;;;;;;5093748;28;20230;-72
2022/02/22 09:47:44;;;;;;;4.20;2.30;;;7.00;99.90;;;;;;5092890;28;20686;-72
2022/02/22 09:50:14;;;;;;;4.80;3.00;;;7.10;99.90;;;;;;5092555;28;20623;-72
2022/02/22 09:52:41;;;;;;;8.50;2.47;;;7.00;99.90;;;;;;5108649;28;20256;-72
2022/02/22 09:55:09;;;;;;;9.85;2.05;;;7.00;99.90;;;;;;5112718;28;20313;-73
2022/02/22 09:57:36;;;;;;;3.22;1.65;;;7.00;99.90;;;;;;5112888;28;20203;-72
2022/02/22 10:00:04;;;;;;;4.40;1.75;;;7.00;99.90;;;;;;5113158;28;20202;-73
2022/02/22 10:02:37;;;;;;;6.93;2.58;;;7.10;99.90;;;;;;5111924;28;20210;-73
2022/02/22 10:05:14;;;;;;;5.80;2.10;;;7.10;99.90;;;;;;5112409;28;20215;-73
2022/02/22 10:07:49;;;;;;;5.65;2.20;;;7.10;99.90;;;;;;5112778;28;20210;-73
2022/02/22 10:10:16;;;;;;;6.75;2.08;;;7.00;99.90;;;;;;5112448;28;20230;-72
2022/02/22 10:12:42;;;;;;;5.63;2.40;;;7.00;99.90;;;;;;5112140;28;20210;-73
2022/02/22 10:15:10;;;;;;;8.00;2.80;;;7.00;99.90;;;;;;5113260;28;20219;-72
2022/02/22 10:17:39;;;;;;;6.50;1.92;;;7.00;99.90;;;;;;5113094;28;20227;-72
2022/02/22 10:20:09;;;;;;;6.07;2.25;;;6.90;99.90;;;;;;5112512;28;20206;-71
2022/02/22 10:22:47;;;;;;;4.35;1.80;;;7.00;99.90;;;;;;5112476;28;20203;-72
2022/02/22 10:25:14;;;;;;;4.80;2.40;;;7.10;99.90;;;;;;5111418;28;20225;-72
2022/02/22 10:27:43;;;;;;;5.57;2.60;;;7.20;99.90;;;;;;5112813;28;20203;-73
2022/02/22 10:30:25;;;;;;;7.55;2.88;;;7.20;99.90;;;;;;5113093;28;20308;-73
2022/02/22 10:32:52;;;;;;;7.55;2.20;;;7.30;99.90;;;;;;5112056;28;20214;-72
2022/02/22 10:35:28;;;;;;;8.77;2.55;;;7.30;99.90;;;;;;5095351;28;20676;-73
2022/02/22 10:37:56;;;;;;;8.57;2.60;;;7.50;99.90;;;;;;5091906;28;20209;-73
2022/02/22 10:40:31;;;;;;;4.00;2.28;;;7.70;99.90;;;;;;5092400;28;20200;-73
2022/02/22 10:42:58;;;;;;;6.65;2.38;;;7.80;99.90;;;;;;5091259;28;20204;-72
2022/02/22 10:45:25;;;;;;;4.82;2.45;;;8.10;99.90;;;;;;5092627;28;20254;-72
2022/02/22 10:47:55;;;;;;;6.82;2.72;;;8.40;99.90;;;;;;5092987;28;20713;-72
2022/02/22 10:50:26;;;;;;;6.57;2.45;;;8.80;99.90;;;;;;5092277;28;20316;-72
2022/02/22 10:52:54;;;;;;;5.32;2.40;;;9.00;99.90;;;;;;5091058;28;20317;-71
2022/02/22 10:55:23;;;;;;;5.43;2.40;;;9.20;99.90;;;;;;5091945;28;20220;-72
2022/02/22 10:57:50;;;;;;;4.57;2.15;;;9.10;99.90;;;;;;5091762;28;20225;-71
2022/02/22 11:00:17;;;;;;;7.60;3.20;;;8.90;99.90;;;;;;5091627;28;20226;-72
2022/02/22 11:02:45;;;;;;;4.53;2.10;;;8.70;99.90;;;;;;5089107;28;20556;-71
2022/02/22 11:05:14;;;;;;;7.25;2.30;;;8.40;99.90;;;;;;5090344;28;20228;-72
2022/02/22 11:07:41;;;;;;;4.10;2.50;;;8.20;99.90;;;;;;5090907;28;20200;-72
2022/02/22 11:10:10;;;;;;;4.50;2.05;;;8.10;99.90;;;;;;5090901;28;20230;-72
2022/02/22 11:12:42;;;;;;;5.20;2.00;;;8.00;99.90;;;;;;5090164;28;20204;-72
2022/02/22 11:15:11;;;;;;;4.07;1.98;;;7.90;99.90;;;;;;5090381;28;20231;-71
2022/02/22 11:17:49;;;;;;;6.68;2.33;;;7.90;99.90;;;;;;5091111;28;20222;-72
2022/02/22 11:20:29;;;;;;;8.30;4.03;;;7.90;99.90;;;;;;5090245;28;20192;-72
2022/02/22 11:22:57;;;;;;;5.93;2.08;;;7.90;99.90;;;;;;5090753;28;20204;-72
2022/02/22 11:25:29;;;;;;;4.82;2.20;;;7.90;99.90;;;;;;5089686;28;20314;-72
2022/02/22 11:28:05;;;;;;;5.60;2.20;;;8.00;99.90;;;;;;5091115;28;20221;-72
2022/02/22 11:30:33;;;;;;;4.05;1.90;;;8.20;99.90;;;;;;5090873;28;20227;-72
2022/02/22 11:33:03;;;;;;;7.90;2.70;;;8.30;99.90;;;;;;5090067;28;20574;-72
2022/02/22 11:35:30;;;;;;;3.60;2.20;;;8.30;99.90;;;;;;5090921;28;20607;-74
2022/02/22 11:38:08;;;;;;;5.88;2.15;;;8.20;99.90;;;;;;5090262;28;20199;-74
2022/02/22 11:40:35;;;;;;;3.50;2.00;;;8.10;99.90;;;;;;5090815;28;20203;-72
2022/02/22 11:43:08;;;;;;;4.82;2.20;;;8.00;99.90;;;;;;5090401;28;20211;-73
2022/02/22 11:45:50;;;;;;;5.10;2.50;;;8.10;99.90;;;;;;5121291;22;20218;-94
2022/02/22 11:48:21;;;;;;;4.70;2.60;;;8.10;99.90;;;;;;5133844;28;20202;-91
2022/02/22 11:50:50;;;;;;;6.22;2.53;;;8.10;99.90;;;;;;5116446;28;20216;-92
2022/02/22 11:56:36;;;;;;;5.20;2.25;;;8.20;99.90;;;;;;5103921;28;20283;-93
2022/02/22 11:59:46;;;;;;;7.07;2.88;;;8.50;99.90;;;;;;5096737;28;20192;-92
2022/02/22 12:02:42;;;;;;;7.25;3.55;;;8.70;99.90;;;;;;5090579;28;20238;-92
2022/02/22 12:05:40;;;;;;;4.57;2.20;;;8.80;99.90;;;;;;5096955;28;20212;-92
2022/02/22 12:08:24;;;;;;;4.95;2.10;;;8.70;99.90;;;;;;5096577;28;20199;-91
2022/02/22 12:14:17;;;;;;;3.80;2.22;;;10.20;99.90;;;;;;5116525;28;20205;-93
2022/02/22 12:19:54;;;;;;;6.55;3.03;;;10.10;99.90;;;;;;5114268;28;20204;-95
2022/02/22 12:22:21;;;;;;;8.50;3.05;;;9.80;99.90;;;;;;5117079;28;20191;-93
2022/02/22 12:25:11;;;;;;;6.28;2.25;;;9.80;99.90;;;;;;5115146;28;20203;-94
2022/02/22 12:27:50;;;;;;;8.95;3.63;;;9.80;99.90;;;;;;5114836;28;20237;-93
2022/02/22 12:30:39;;;;;;;5.13;2.42;;;9.80;99.90;;;;;;5116641;28;20233;-94
2022/02/22 12:33:44;;;;;;;6.72;2.30;;;9.80;99.90;;;;;;5116945;28;20204;-93
2022/02/22 12:36:34;;;;;;;5.93;2.78;;;9.50;99.90;;;;;;5116961;28;20214;-93
2022/02/22 12:42:10;;;;;;;7.03;2.83;;;10.50;99.20;;;;;;5116847;28;20188;-94
2022/02/22 12:44:39;;;;;;;4.65;2.28;;;10.50;98.90;;;;;;5118662;22;20904;-73
2022/02/22 12:47:06;;;;;;;8.52;2.60;;;10.30;98.60;;;;;;5089507;28;20192;-74
2022/02/22 12:49:34;;;;;;;7.32;2.83;;;10.20;99.20;;;;;;5089892;28;20234;-74
2022/02/22 12:52:06;;;;;;;6.90;2.42;;;10.20;98.90;;;;;;5089647;28;20207;-74
2022/02/22 12:54:34;;;;;;;6.05;3.22;;;10.30;98.40;;;;;;5089389;28;20711;-74
2022/02/22 12:57:03;;;;;;;8.75;3.08;;;10.50;98.00;;;;;;5089799;28;20207;-74
2022/02/22 12:59:31;;;;;;;9.50;2.85;;;10.70;97.60;;;;;;5090190;28;20204;-72
2022/02/22 13:02:00;;;;;;;9.80;3.53;;;10.70;97.10;;;;;;5089170;28;20231;-73
2022/02/22 13:04:29;;;;;;;5.95;2.70;;;10.60;97.20;;;;;;5089571;28;20220;-74
2022/02/22 13:06:59;;;;;;;6.75;2.30;;;10.50;97.70;;;;;;5089888;28;20207;-74
2022/02/22 13:09:27;;;;;;;7.03;2.50;;;10.50;97.90;;;;;;5093842;28;20211;-74
2022/02/22 13:11:56;;;;;;;8.40;2.55;;;10.60;97.30;;;;;;5094384;28;20286;-74
2022/02/22 13:14:24;;;;;;;4.40;3.10;;;10.70;97.40;;;;;;5093847;28;20238;-74
2022/02/22 13:16:55;;;;;;;5.85;2.88;;;10.80;97.20;;;;;;5093936;28;20206;-74
2022/02/22 13:19:31;;;;;;;4.38;2.30;;;10.60;96.70;;;;;;5093751;28;20199;-73
2022/02/22 13:22:00;;;;;;;10.82;3.13;;;10.40;97.30;;;;;;5094052;28;20203;-73
2022/02/22 13:24:27;;;;;;;6.55;2.58;;;10.40;97.00;;;;;;5093085;28;20223;-73
2022/02/22 13:26:57;;;;;;;8.05;2.55;;;10.20;97.20;;;;;;5093716;28;20203;-73
2022/02/22 13:29:25;;;;;;;10.93;3.28;;;10.10;97.20;;;;;;5093831;28;20203;-74
2022/02/22 13:32:02;;;;;;;4.10;2.10;;;9.80;97.90;;;;;;5093470;28;20207;-72
2022/02/22 13:34:31;;;;;;;5.97;2.55;;;9.60;97.90;;;;;;5092925;28;20226;-73
2022/02/22 13:37:00;;;;;;;10.23;3.10;;;9.50;97.90;;;;;;5092318;28;20203;-73
2022/02/22 13:39:28;;;;;;;6.40;2.55;;;9.40;98.20;;;;;;5093075;28;20207;-72
2022/02/22 13:41:57;;;;;;;5.53;2.38;;;9.30;98.60;;;;;;5099537;28;20198;-74
2022/02/22 13:44:33;;;;;;;6.32;2.60;;;9.10;98.20;;;;;;5094034;28;20235;-74
2022/02/22 13:46:59;;;;;;;3.72;2.15;;;9.10;98.60;;;;;;5109997;27;20229;-73
2022/02/22 13:49:26;;;;;;;8.10;2.70;;;9.20;98.70;;;;;;5133401;27;20198;-76
2022/02/22 13:51:55;;;;;;;5.97;2.80;;;9.20;98.60;;;;;;5133151;27;20198;-76
2022/02/22 13:54:25;;;;;;;8.70;2.40;;;9.30;98.60;;;;;;5132441;27;20226;-75
2022/02/22 13:56:54;;;;;;;6.25;3.00;;;9.30;98.40;;;;;;5133620;27;20217;-76